createdAt,value
2023-05-21T00:00:20.507Z,19.92
2023-05-21T00:01:20.563Z,19.92
2023-05-21T00:02:20.628Z,19.92
2023-05-21T00:03:21.675Z,19.92
2023-05-21T00:04:21.345Z,19.93
2023-05-21T00:05:20.535Z,19.92
2023-05-21T00:06:20.598Z,19.92
2023-05-21T00:07:20.552Z,19.93
2023-05-21T00:08:20.552Z,19.93
2023-05-21T00:09:20.532Z,19.92
2023-05-21T00:10:20.847Z,19.92
2023-05-21T00:11:20.512Z,19.92
2023-05-21T00:12:20.528Z,19.92
2023-05-21T00:13:20.568Z,19.92
2023-05-21T00:14:20.592Z,19.92
2023-05-21T00:15:20.639Z,19.92
2023-05-21T00:16:20.769Z,19.92
2023-05-21T00:17:20.749Z,19.91
2023-05-21T00:18:20.749Z,19.91
2023-05-21T00:19:20.791Z,19.91
2023-05-21T00:20:20.745Z,19.91
2023-05-21T00:21:20.709Z,19.91
2023-05-21T00:22:20.702Z,19.92
2023-05-21T00:23:20.705Z,19.92
2023-05-21T00:24:20.701Z,19.92
2023-05-21T00:25:20.670Z,19.91
2023-05-21T00:26:20.686Z,19.91
2023-05-21T00:27:20.668Z,19.91
2023-05-21T00:28:22.398Z,19.91
2023-05-21T00:29:20.654Z,19.91
2023-05-21T00:30:20.684Z,19.91
2023-05-21T00:31:20.672Z,19.91
2023-05-21T00:32:20.646Z,19.92
2023-05-21T00:33:20.625Z,19.91
2023-05-21T00:34:20.661Z,19.91
2023-05-21T00:35:20.715Z,19.91
2023-05-21T00:36:21.364Z,19.92
2023-05-21T00:37:20.748Z,19.91
2023-05-21T00:38:22.393Z,19.91
2023-05-21T00:39:20.799Z,19.91
2023-05-21T00:40:20.883Z,19.91
2023-05-21T00:41:20.887Z,19.91
2023-05-21T00:42:20.895Z,19.91
2023-05-21T00:43:20.931Z,19.91
2023-05-21T00:44:20.933Z,19.91
2023-05-21T00:45:20.939Z,19.91
2023-05-21T00:46:21.011Z,19.90
2023-05-21T00:47:21.002Z,19.91
2023-05-21T00:48:21.928Z,19.91
2023-05-21T00:49:20.918Z,19.90
2023-05-21T00:50:20.952Z,19.91
2023-05-21T00:51:20.913Z,19.90
2023-05-21T00:52:20.906Z,19.91
2023-05-21T00:53:20.919Z,19.90
2023-05-21T00:54:20.917Z,19.90
2023-05-21T00:55:20.915Z,19.90
2023-05-21T00:56:20.917Z,19.91
2023-05-21T00:57:20.882Z,19.90
2023-05-21T00:58:20.895Z,19.90
2023-05-21T00:59:20.883Z,19.90
2023-05-21T01:00:20.867Z,19.91
2023-05-21T01:01:20.991Z,19.90
2023-05-21T01:02:20.873Z,19.90
2023-05-21T01:03:21.111Z,19.90
2023-05-21T01:04:20.932Z,19.90
2023-05-21T01:05:20.929Z,19.90
2023-05-21T01:06:20.945Z,19.90
2023-05-21T01:07:20.971Z,19.89
2023-05-21T01:08:21.005Z,19.90
2023-05-21T01:09:21.025Z,19.90
2023-05-21T01:10:21.078Z,19.90
2023-05-21T01:11:21.837Z,19.90
2023-05-21T01:12:21.801Z,19.90
2023-05-21T01:13:21.127Z,19.90
2023-05-21T01:14:21.167Z,19.90
2023-05-21T01:15:21.318Z,19.90
2023-05-21T01:16:21.280Z,19.91
2023-05-21T01:17:21.309Z,19.90
2023-05-21T01:18:21.353Z,19.90
2023-05-21T01:19:21.371Z,19.90
2023-05-21T01:20:21.327Z,19.90
2023-05-21T01:21:21.369Z,19.90
2023-05-21T01:22:21.401Z,19.90
2023-05-21T01:23:21.402Z,19.89
2023-05-21T01:24:21.445Z,19.90
2023-05-21T01:25:22.859Z,19.90
2023-05-21T01:26:21.477Z,19.90
2023-05-21T01:27:21.547Z,19.89
2023-05-21T01:28:21.549Z,19.89
2023-05-21T01:29:21.512Z,19.89
2023-05-21T01:30:21.510Z,19.89
2023-05-21T01:31:21.534Z,19.89
2023-05-21T01:32:21.529Z,19.89
2023-05-21T01:33:21.536Z,19.89
2023-05-21T01:34:21.528Z,19.89
2023-05-21T01:35:21.534Z,19.89
2023-05-21T01:36:21.502Z,19.89
2023-05-21T01:37:21.512Z,19.89
2023-05-21T01:38:21.467Z,19.89
2023-05-21T01:39:21.459Z,19.89
2023-05-21T01:40:21.468Z,19.89
2023-05-21T01:41:21.546Z,19.89
2023-05-21T01:42:21.484Z,19.88
2023-05-21T01:43:21.437Z,19.89
2023-05-21T01:44:21.453Z,19.89
2023-05-21T01:45:21.872Z,19.89
2023-05-21T01:46:21.469Z,19.89
2023-05-21T01:47:21.426Z,19.88
2023-05-21T01:48:21.446Z,19.88
2023-05-21T01:49:21.465Z,19.88
2023-05-21T01:50:21.494Z,19.89
2023-05-21T01:51:22.497Z,19.89
2023-05-21T01:52:21.459Z,19.88
2023-05-21T01:53:21.472Z,19.88
2023-05-21T01:54:21.439Z,19.88
2023-05-21T01:55:21.472Z,19.88
2023-05-21T01:56:21.467Z,19.88
2023-05-21T01:57:21.476Z,19.89
2023-05-21T01:58:21.398Z,19.88
2023-05-21T01:59:21.456Z,19.89
2023-05-21T02:00:21.866Z,19.89
2023-05-21T02:01:22.457Z,19.88
2023-05-21T02:02:22.396Z,19.88
2023-05-21T02:03:21.564Z,19.88
2023-05-21T02:04:21.390Z,19.88
2023-05-21T02:05:21.398Z,19.88
2023-05-21T02:06:22.383Z,19.88
2023-05-21T02:07:21.400Z,19.88
2023-05-21T02:08:21.381Z,19.89
2023-05-21T02:09:21.420Z,19.88
2023-05-21T02:10:22.392Z,19.88
2023-05-21T02:11:21.425Z,19.89
2023-05-21T02:12:21.435Z,19.88
2023-05-21T02:13:23.048Z,19.89
2023-05-21T02:14:21.450Z,19.88
2023-05-21T02:15:21.460Z,19.88
2023-05-21T02:16:21.486Z,19.89
2023-05-21T02:17:21.474Z,19.88
2023-05-21T02:18:21.497Z,19.88
2023-05-21T02:19:21.497Z,19.88
2023-05-21T02:20:21.462Z,19.88
2023-05-21T02:21:21.446Z,19.88
2023-05-21T02:22:21.458Z,19.89
2023-05-21T02:23:21.411Z,19.87
2023-05-21T02:24:21.397Z,19.88
2023-05-21T02:25:21.446Z,19.87
2023-05-21T02:26:21.415Z,19.88
2023-05-21T02:27:21.403Z,19.88
2023-05-21T02:28:21.442Z,19.88
2023-05-21T02:29:21.392Z,19.88
2023-05-21T02:30:21.422Z,19.87
2023-05-21T02:31:22.389Z,19.87
2023-05-21T02:32:21.920Z,19.88
2023-05-21T02:33:21.359Z,19.87
2023-05-21T02:34:21.484Z,19.87
2023-05-21T02:35:21.362Z,19.88
2023-05-21T02:36:21.356Z,19.87
2023-05-21T02:37:21.346Z,19.87
2023-05-21T02:38:21.308Z,19.87
2023-05-21T02:39:21.324Z,19.87
2023-05-21T02:40:21.410Z,19.87
2023-05-21T02:41:21.276Z,19.87
2023-05-21T02:42:21.303Z,19.88
2023-05-21T02:43:21.303Z,19.87
2023-05-21T02:44:21.290Z,19.87
2023-05-21T02:45:22.284Z,19.87
2023-05-21T02:46:21.319Z,19.87
2023-05-21T02:47:21.278Z,19.86
2023-05-21T02:48:21.240Z,19.86
2023-05-21T02:49:21.253Z,19.87
2023-05-21T02:50:21.388Z,19.87
2023-05-21T02:51:21.231Z,19.87
2023-05-21T02:52:21.205Z,19.87
2023-05-21T02:53:21.215Z,19.87
2023-05-21T02:54:21.224Z,19.86
2023-05-21T02:55:21.419Z,19.87
2023-05-21T02:56:21.247Z,19.86
2023-05-21T02:57:21.186Z,19.87
2023-05-21T02:58:21.186Z,19.86
2023-05-21T02:59:21.143Z,19.87
2023-05-21T03:00:21.399Z,19.87
2023-05-21T03:01:21.257Z,19.87
2023-05-21T03:02:21.215Z,19.87
2023-05-21T03:03:21.250Z,19.87
2023-05-21T03:04:21.231Z,19.87
2023-05-21T03:05:21.386Z,19.87
2023-05-21T03:06:21.227Z,19.87
2023-05-21T03:07:21.233Z,19.87
2023-05-21T03:08:21.262Z,19.86
2023-05-21T03:09:21.313Z,19.87
2023-05-21T03:10:21.445Z,19.87
2023-05-21T03:11:21.338Z,19.87
2023-05-21T03:12:21.338Z,19.87
2023-05-21T03:13:21.387Z,19.87
2023-05-21T03:14:21.410Z,19.87
2023-05-21T03:15:21.917Z,19.86
2023-05-21T03:16:21.455Z,19.86
2023-05-21T03:17:21.448Z,19.86
2023-05-21T03:18:21.457Z,19.86
2023-05-21T03:19:21.486Z,19.87
2023-05-21T03:20:21.509Z,19.87
2023-05-21T03:21:21.475Z,19.87
2023-05-21T03:22:21.516Z,19.86
2023-05-21T03:23:21.525Z,19.87
2023-05-21T03:24:21.524Z,19.86
2023-05-21T03:25:21.534Z,19.86
2023-05-21T03:26:21.595Z,19.87
2023-05-21T03:27:21.585Z,19.87
2023-05-21T03:28:21.618Z,19.86
2023-05-21T03:29:21.594Z,19.86
2023-05-21T03:30:21.901Z,19.86
2023-05-21T03:31:21.629Z,19.86
2023-05-21T03:32:21.699Z,19.87
2023-05-21T03:33:21.656Z,19.87
2023-05-21T03:34:21.693Z,19.86
2023-05-21T03:35:21.906Z,19.87
2023-05-21T03:36:21.709Z,19.87
2023-05-21T03:37:21.729Z,19.86
2023-05-21T03:38:21.720Z,19.87
2023-05-21T03:39:21.736Z,19.87
2023-05-21T03:40:21.748Z,19.86
2023-05-21T03:41:21.738Z,19.86
2023-05-21T03:42:21.786Z,19.86
2023-05-21T03:43:21.795Z,19.86
2023-05-21T03:44:21.810Z,19.86
2023-05-21T03:45:21.927Z,19.86
2023-05-21T03:46:21.865Z,19.86
2023-05-21T03:47:21.905Z,19.86
2023-05-21T03:48:21.892Z,19.86
2023-05-21T03:49:21.914Z,19.86
2023-05-21T03:50:22.433Z,19.86
2023-05-21T03:51:21.976Z,19.86
2023-05-21T03:52:21.979Z,19.86
2023-05-21T03:53:22.018Z,19.85
2023-05-21T03:54:22.050Z,19.86
2023-05-21T03:55:22.063Z,19.86
2023-05-21T03:56:22.109Z,19.86
2023-05-21T03:57:22.162Z,19.86
2023-05-21T03:58:22.195Z,19.86
2023-05-21T03:59:22.179Z,19.86
2023-05-21T04:00:22.422Z,19.86
2023-05-21T04:01:22.244Z,19.86
2023-05-21T04:02:22.355Z,19.85
2023-05-21T04:03:22.364Z,19.86
2023-05-21T04:04:22.309Z,19.86
2023-05-21T04:05:22.431Z,19.86
2023-05-21T04:06:22.371Z,19.86
2023-05-21T04:07:22.333Z,19.85
2023-05-21T04:08:22.347Z,19.85
2023-05-21T04:09:22.395Z,19.86
2023-05-21T04:10:22.430Z,19.86
2023-05-21T04:11:22.520Z,19.85
2023-05-21T04:12:22.420Z,19.85
2023-05-21T04:13:22.453Z,19.85
2023-05-21T04:14:22.471Z,19.86
2023-05-21T04:15:22.933Z,19.86
2023-05-21T04:16:22.569Z,19.85
2023-05-21T04:17:22.664Z,19.85
2023-05-21T04:18:22.523Z,19.85
2023-05-21T04:19:22.606Z,19.85
2023-05-21T04:20:22.945Z,19.86
2023-05-21T04:21:22.612Z,19.85
2023-05-21T04:22:22.604Z,19.86
2023-05-21T04:23:22.619Z,19.86
2023-05-21T04:24:22.683Z,19.85
2023-05-21T04:25:22.917Z,19.86
2023-05-21T04:26:22.682Z,19.86
2023-05-21T04:27:22.689Z,19.86
2023-05-21T04:28:22.760Z,19.85
2023-05-21T04:29:22.719Z,19.86
2023-05-21T04:30:22.938Z,19.86
2023-05-21T04:31:22.813Z,19.86
2023-05-21T04:32:22.781Z,19.85
2023-05-21T04:33:22.797Z,19.85
2023-05-21T04:34:22.799Z,19.86
2023-05-21T04:35:22.949Z,19.86
2023-05-21T04:36:22.814Z,19.86
2023-05-21T04:37:22.811Z,19.86
2023-05-21T04:38:22.858Z,19.86
2023-05-21T04:39:22.859Z,19.86
2023-05-21T04:40:22.938Z,19.86
2023-05-21T04:41:22.908Z,19.85
2023-05-21T04:42:22.901Z,19.86
2023-05-21T04:43:22.882Z,19.86
2023-05-21T04:44:22.920Z,19.85
2023-05-21T04:45:22.953Z,19.86
2023-05-21T04:46:22.968Z,19.85
2023-05-21T04:47:23.009Z,19.85
2023-05-21T04:48:22.960Z,19.86
2023-05-21T04:49:22.989Z,19.86
2023-05-21T04:50:23.449Z,19.86
2023-05-21T04:51:23.022Z,19.85
2023-05-21T04:52:23.058Z,19.85
2023-05-21T04:53:23.051Z,19.85
2023-05-21T04:54:23.073Z,19.85
2023-05-21T04:55:23.454Z,19.86
2023-05-21T04:56:23.050Z,19.86
2023-05-21T04:57:23.109Z,19.86
2023-05-21T04:58:23.112Z,19.85
2023-05-21T04:59:23.115Z,19.86
2023-05-21T05:00:23.464Z,19.86
2023-05-21T05:01:23.178Z,19.86
2023-05-21T05:02:23.261Z,19.86
2023-05-21T05:03:23.247Z,19.86
2023-05-21T05:04:23.204Z,19.86
2023-05-21T05:05:23.460Z,19.86
2023-05-21T05:06:23.206Z,19.86
2023-05-21T05:07:23.221Z,19.85
2023-05-21T05:08:23.203Z,19.85
2023-05-21T05:09:23.225Z,19.86
2023-05-21T05:10:23.481Z,19.86
2023-05-21T05:11:23.218Z,19.85
2023-05-21T05:12:23.219Z,19.86
2023-05-21T05:13:23.252Z,19.85
2023-05-21T05:14:23.263Z,19.86
2023-05-21T05:15:23.322Z,19.86
2023-05-21T05:16:23.332Z,19.86
2023-05-21T05:17:23.348Z,19.86
2023-05-21T05:18:23.335Z,19.86
2023-05-21T05:19:23.375Z,19.86
2023-05-21T05:20:23.466Z,19.86
2023-05-21T05:21:23.429Z,19.86
2023-05-21T05:22:23.414Z,19.85
2023-05-21T05:23:23.451Z,19.85
2023-05-21T05:24:23.480Z,19.86
2023-05-21T05:25:23.467Z,19.86
2023-05-21T05:26:23.515Z,19.86
2023-05-21T05:27:23.465Z,19.86
2023-05-21T05:28:23.491Z,19.86
2023-05-21T05:29:23.488Z,19.86
2023-05-21T05:30:23.492Z,19.86
2023-05-21T05:31:23.644Z,19.86
2023-05-21T05:32:23.533Z,19.86
2023-05-21T05:33:23.515Z,19.86
2023-05-21T05:34:23.591Z,19.86
2023-05-21T05:35:23.587Z,19.85
2023-05-21T05:36:24.441Z,19.86
2023-05-21T05:37:23.586Z,19.86
2023-05-21T05:38:23.595Z,19.86
2023-05-21T05:39:23.598Z,19.86
2023-05-21T05:40:23.602Z,19.86
2023-05-21T05:41:23.622Z,19.86
2023-05-21T05:42:23.712Z,19.86
2023-05-21T05:43:23.672Z,19.86
2023-05-21T05:44:23.682Z,19.86
2023-05-21T05:45:23.731Z,19.86
2023-05-21T05:46:23.811Z,19.85
2023-05-21T05:47:23.848Z,19.85
2023-05-21T05:48:23.733Z,19.86
2023-05-21T05:49:23.761Z,19.85
2023-05-21T05:50:23.772Z,19.86
2023-05-21T05:51:23.792Z,19.86
2023-05-21T05:52:23.812Z,19.86
2023-05-21T05:53:23.849Z,19.86
2023-05-21T05:54:23.847Z,19.86
2023-05-21T05:55:23.860Z,19.86
2023-05-21T05:56:23.877Z,19.86
2023-05-21T05:57:23.880Z,19.86
2023-05-21T05:58:23.937Z,19.86
2023-05-21T05:59:23.942Z,19.87
2023-05-21T06:00:23.996Z,19.86
2023-05-21T06:01:23.951Z,19.86
2023-05-21T06:02:24.004Z,19.86
2023-05-21T06:03:24.142Z,19.87
2023-05-21T06:04:23.998Z,19.87
2023-05-21T06:05:24.508Z,19.86
2023-05-21T06:06:24.093Z,19.86
2023-05-21T06:07:24.031Z,19.87
2023-05-21T06:08:24.025Z,19.87
2023-05-21T06:09:24.032Z,19.87
2023-05-21T06:10:24.431Z,19.87
2023-05-21T06:11:24.097Z,19.87
2023-05-21T06:12:24.127Z,19.87
2023-05-21T06:13:24.132Z,19.87
2023-05-21T06:14:24.133Z,19.87
2023-05-21T06:15:24.450Z,19.87
2023-05-21T06:16:24.216Z,19.87
2023-05-21T06:17:24.249Z,19.88
2023-05-21T06:18:24.210Z,19.87
2023-05-21T06:19:24.378Z,19.87
2023-05-21T06:20:24.481Z,19.87
2023-05-21T06:21:24.235Z,19.87
2023-05-21T06:22:25.643Z,19.87
2023-05-21T06:23:24.306Z,19.87
2023-05-21T06:24:24.321Z,19.88
2023-05-21T06:25:24.328Z,19.88
2023-05-21T06:26:24.436Z,19.87
2023-05-21T06:27:24.360Z,19.88
2023-05-21T06:28:24.364Z,19.88
2023-05-21T06:29:24.387Z,19.88
2023-05-21T06:30:24.451Z,19.88
2023-05-21T06:31:24.415Z,19.88
2023-05-21T06:32:24.470Z,19.89
2023-05-21T06:33:24.457Z,19.87
2023-05-21T06:34:24.450Z,19.88
2023-05-21T06:35:24.483Z,19.87
2023-05-21T06:36:24.478Z,19.88
2023-05-21T06:37:26.533Z,19.88
2023-05-21T06:38:24.572Z,19.88
2023-05-21T06:39:24.540Z,19.88
2023-05-21T06:40:24.556Z,19.88
2023-05-21T06:41:24.553Z,19.89
2023-05-21T06:42:24.572Z,19.89
2023-05-21T06:43:24.595Z,19.88
2023-05-21T06:44:24.613Z,19.88
2023-05-21T06:45:24.641Z,19.87
2023-05-21T06:46:24.688Z,19.88
2023-05-21T06:47:24.695Z,19.89
2023-05-21T06:48:24.675Z,19.89
2023-05-21T06:49:24.707Z,19.88
2023-05-21T06:50:25.006Z,19.89
2023-05-21T06:51:24.731Z,19.89
2023-05-21T06:52:24.740Z,19.88
2023-05-21T06:53:24.790Z,19.89
2023-05-21T06:54:26.770Z,19.89
2023-05-21T06:55:24.990Z,19.89
2023-05-21T06:56:24.821Z,19.88
2023-05-21T06:57:24.858Z,19.89
2023-05-21T06:58:24.881Z,19.89
2023-05-21T06:59:24.882Z,19.89
2023-05-21T07:00:24.962Z,19.89
2023-05-21T07:01:24.943Z,19.89
2023-05-21T07:02:25.033Z,19.90
2023-05-21T07:03:25.189Z,19.90
2023-05-21T07:04:25.034Z,19.90
2023-05-21T07:05:25.053Z,19.90
2023-05-21T07:06:25.105Z,19.90
2023-05-21T07:07:25.117Z,19.90
2023-05-21T07:08:25.127Z,19.90
2023-05-21T07:09:25.130Z,19.91
2023-05-21T07:10:25.156Z,19.90
2023-05-21T07:11:25.195Z,19.90
2023-05-21T07:12:25.223Z,19.90
2023-05-21T07:13:25.256Z,19.90
2023-05-21T07:14:25.301Z,19.90
2023-05-21T07:15:25.326Z,19.91
2023-05-21T07:16:25.377Z,19.90
2023-05-21T07:17:25.395Z,19.91
2023-05-21T07:18:25.396Z,19.91
2023-05-21T07:19:25.580Z,19.91
2023-05-21T07:20:25.571Z,19.92
2023-05-21T07:21:25.549Z,19.91
2023-05-21T07:22:27.951Z,19.91
2023-05-21T07:23:25.564Z,19.92
2023-05-21T07:24:25.581Z,19.92
2023-05-21T07:25:25.994Z,19.92
2023-05-21T07:26:25.566Z,19.92
2023-05-21T07:27:26.213Z,19.91
2023-05-21T07:28:25.559Z,19.92
2023-05-21T07:29:25.510Z,19.92
2023-05-21T07:30:26.012Z,19.93
2023-05-21T07:31:25.567Z,19.92
2023-05-21T07:32:25.538Z,19.92
2023-05-21T07:33:25.502Z,19.92
2023-05-21T07:34:25.572Z,19.93
2023-05-21T07:35:25.511Z,19.93
2023-05-21T07:36:25.519Z,19.93
2023-05-21T07:37:25.466Z,19.93
2023-05-21T07:38:25.461Z,19.93
2023-05-21T07:39:25.425Z,19.93
2023-05-21T07:40:25.474Z,19.93
2023-05-21T07:41:25.474Z,19.93
2023-05-21T07:42:25.456Z,19.94
2023-05-21T07:43:25.484Z,19.94
2023-05-21T07:44:25.426Z,19.93
2023-05-21T07:45:25.394Z,19.94
2023-05-21T07:46:25.436Z,19.94
2023-05-21T07:47:25.432Z,19.94
2023-05-21T07:48:25.409Z,19.94
2023-05-21T07:49:25.407Z,19.95
2023-05-21T07:50:25.502Z,19.95
2023-05-21T07:51:25.423Z,19.95
2023-05-21T07:52:25.392Z,19.95
2023-05-21T07:53:25.395Z,19.96
2023-05-21T07:54:25.384Z,19.95
2023-05-21T07:55:25.366Z,19.95
2023-05-21T07:56:25.343Z,19.96
2023-05-21T07:57:25.369Z,19.96
2023-05-21T07:58:25.320Z,19.96
2023-05-21T07:59:25.337Z,19.95
2023-05-21T08:00:25.381Z,19.95
2023-05-21T08:01:25.342Z,19.96
2023-05-21T08:02:25.439Z,19.96
2023-05-21T08:03:25.373Z,19.97
2023-05-21T08:04:25.439Z,19.96
2023-05-21T08:05:25.376Z,19.97
2023-05-21T08:06:25.452Z,19.97
2023-05-21T08:07:25.447Z,19.97
2023-05-21T08:08:25.551Z,19.98
2023-05-21T08:09:25.586Z,19.98
2023-05-21T08:10:25.597Z,19.97
2023-05-21T08:11:25.657Z,19.98
2023-05-21T08:12:25.711Z,19.98
2023-05-21T08:13:25.769Z,19.98
2023-05-21T08:14:25.815Z,19.98
2023-05-21T08:15:25.832Z,19.99
2023-05-21T08:16:26.100Z,19.99
2023-05-21T08:17:26.016Z,19.99
2023-05-21T08:18:26.006Z,19.99
2023-05-21T08:19:26.043Z,19.99
2023-05-21T08:20:26.055Z,20.00
2023-05-21T08:21:26.549Z,20.00
2023-05-21T08:22:26.203Z,20.00
2023-05-21T08:23:26.215Z,20.00
2023-05-21T08:24:26.257Z,20.00
2023-05-21T08:25:26.288Z,20.01
2023-05-21T08:26:26.525Z,20.01
2023-05-21T08:27:26.372Z,20.00
2023-05-21T08:28:26.435Z,20.01
2023-05-21T08:29:26.497Z,20.01
2023-05-21T08:30:26.515Z,20.01
2023-05-21T08:31:27.011Z,20.01
2023-05-21T08:32:26.643Z,20.02
2023-05-21T08:33:26.649Z,20.02
2023-05-21T08:34:26.759Z,20.02
2023-05-21T08:35:26.748Z,20.01
2023-05-21T08:36:27.037Z,20.01
2023-05-21T08:37:26.850Z,20.02
2023-05-21T08:38:28.777Z,20.02
2023-05-21T08:39:26.913Z,20.02
2023-05-21T08:40:26.871Z,20.03
2023-05-21T08:41:26.880Z,20.03
2023-05-21T08:42:36.263Z,20.03
2023-05-21T08:43:27.878Z,20.02
2023-05-21T08:44:26.853Z,20.02
2023-05-21T08:45:26.856Z,20.02
2023-05-21T08:46:26.985Z,20.02
2023-05-21T08:47:26.854Z,20.02
2023-05-21T08:48:26.821Z,20.02
2023-05-21T08:49:27.412Z,20.02
2023-05-21T08:50:26.807Z,20.02
2023-05-21T08:51:26.800Z,20.02
2023-05-21T08:52:26.813Z,20.02
2023-05-21T08:53:28.609Z,20.03
2023-05-21T08:54:26.953Z,20.02
2023-05-21T08:55:27.023Z,20.02
2023-05-21T08:56:27.501Z,20.03
2023-05-21T08:57:27.095Z,20.02
2023-05-21T08:58:27.112Z,20.03
2023-05-21T08:59:27.172Z,20.02
2023-05-21T09:00:27.241Z,20.03
2023-05-21T09:01:27.343Z,20.02
2023-05-21T09:02:27.362Z,20.02
2023-05-21T09:03:27.479Z,20.03
2023-05-21T09:04:27.479Z,20.02
2023-05-21T09:05:27.498Z,20.03
2023-05-21T09:06:27.577Z,20.03
2023-05-21T09:07:27.583Z,20.03
2023-05-21T09:08:27.659Z,20.03
2023-05-21T09:09:27.713Z,20.02
2023-05-21T09:10:27.738Z,20.02
2023-05-21T09:11:27.803Z,20.03
2023-05-21T09:12:27.837Z,20.02
2023-05-21T09:13:27.898Z,20.03
2023-05-21T09:14:27.948Z,20.03
2023-05-21T09:15:27.980Z,20.03
2023-05-21T09:16:28.097Z,20.03
2023-05-21T09:17:28.119Z,20.04
2023-05-21T09:18:28.147Z,20.03
2023-05-21T09:19:28.215Z,20.04
2023-05-21T09:20:28.224Z,20.04
2023-05-21T09:21:28.372Z,20.04
2023-05-21T09:22:28.351Z,20.05
2023-05-21T09:23:28.400Z,20.06
2023-05-21T09:24:28.425Z,20.06
2023-05-21T09:25:28.485Z,20.05
2023-05-21T09:26:29.119Z,20.06
2023-05-21T09:27:28.614Z,20.06
2023-05-21T09:28:28.644Z,20.07
2023-05-21T09:29:28.708Z,20.07
2023-05-21T09:30:30.246Z,20.06
2023-05-21T09:31:28.832Z,20.06
2023-05-21T09:32:28.789Z,20.07
2023-05-21T09:33:28.747Z,20.07
2023-05-21T09:34:28.742Z,20.07
2023-05-21T09:35:28.726Z,20.07
2023-05-21T09:36:28.729Z,20.08
2023-05-21T09:37:28.718Z,20.07
2023-05-21T09:38:28.709Z,20.08
2023-05-21T09:39:28.714Z,20.08
2023-05-21T09:40:28.710Z,20.08
2023-05-21T09:41:28.690Z,20.08
2023-05-21T09:42:28.671Z,20.08
2023-05-21T09:43:28.676Z,20.08
2023-05-21T09:44:28.680Z,20.09
2023-05-21T09:45:28.665Z,20.09
2023-05-21T09:46:28.710Z,20.09
2023-05-21T09:47:28.694Z,20.09
2023-05-21T09:48:28.649Z,20.10
2023-05-21T09:49:28.655Z,20.10
2023-05-21T09:50:28.637Z,20.10
2023-05-21T09:51:28.620Z,20.10
2023-05-21T09:52:28.605Z,20.10
2023-05-21T09:53:28.622Z,20.10
2023-05-21T09:54:28.614Z,20.11
2023-05-21T09:55:28.588Z,20.10
2023-05-21T09:56:28.609Z,20.11
2023-05-21T09:57:28.603Z,20.11
2023-05-21T09:58:28.573Z,20.11
2023-05-21T09:59:28.544Z,20.11
2023-05-21T10:00:28.550Z,20.11
2023-05-21T10:01:29.061Z,20.11
2023-05-21T10:02:28.571Z,20.12
2023-05-21T10:03:28.551Z,20.11
2023-05-21T10:04:28.725Z,20.13
2023-05-21T10:05:28.524Z,20.12
2023-05-21T10:06:28.540Z,20.11
2023-05-21T10:07:28.502Z,20.12
2023-05-21T10:08:28.548Z,20.13
2023-05-21T10:09:28.505Z,20.12
2023-05-21T10:10:28.522Z,20.12
2023-05-21T10:11:28.491Z,20.11
2023-05-21T10:12:28.471Z,20.13
2023-05-21T10:13:28.502Z,20.11
2023-05-21T10:14:28.486Z,20.12
2023-05-21T10:15:28.526Z,20.13
2023-05-21T10:16:28.593Z,20.12
2023-05-21T10:17:28.604Z,20.13
2023-05-21T10:18:28.668Z,20.13
2023-05-21T10:19:28.725Z,20.12
2023-05-21T10:20:28.737Z,20.14
2023-05-21T10:21:29.025Z,20.14
2023-05-21T10:22:28.851Z,20.14
2023-05-21T10:23:28.878Z,20.15
2023-05-21T10:24:28.887Z,20.15
2023-05-21T10:25:28.942Z,20.15
2023-05-21T10:26:29.014Z,20.15
2023-05-21T10:27:31.366Z,20.15
2023-05-21T10:28:29.017Z,20.15
2023-05-21T10:29:28.993Z,20.16
2023-05-21T10:30:28.988Z,20.17
2023-05-21T10:31:28.993Z,20.16
2023-05-21T10:32:29.056Z,20.16
2023-05-21T10:33:28.991Z,20.17
2023-05-21T10:34:28.950Z,20.16
2023-05-21T10:35:28.957Z,20.16
2023-05-21T10:36:29.029Z,20.17
2023-05-21T10:37:28.941Z,20.18
2023-05-21T10:38:28.954Z,20.17
2023-05-21T10:39:28.942Z,20.17
2023-05-21T10:40:28.965Z,20.17
2023-05-21T10:41:28.931Z,20.17
2023-05-21T10:42:28.907Z,20.17
2023-05-21T10:43:28.892Z,20.18
2023-05-21T10:44:28.900Z,20.18
2023-05-21T10:45:28.941Z,20.18
2023-05-21T10:46:28.864Z,20.18
2023-05-21T10:47:28.933Z,20.18
2023-05-21T10:48:28.888Z,20.18
2023-05-21T10:49:28.866Z,20.17
2023-05-21T10:50:28.847Z,20.18
2023-05-21T10:51:28.869Z,20.18
2023-05-21T10:52:28.844Z,20.18
2023-05-21T10:53:28.840Z,20.18
2023-05-21T10:54:28.844Z,20.18
2023-05-21T10:55:28.845Z,20.18
2023-05-21T10:56:28.823Z,20.18
2023-05-21T10:57:28.816Z,20.17
2023-05-21T10:58:30.094Z,20.18
2023-05-21T10:59:28.834Z,20.18
2023-05-21T11:00:28.821Z,20.18
2023-05-21T11:01:28.821Z,20.18
2023-05-21T11:02:28.960Z,20.18
2023-05-21T11:03:28.843Z,20.19
2023-05-21T11:04:28.744Z,20.19
2023-05-21T11:05:28.742Z,20.19
2023-05-21T11:06:28.780Z,20.19
2023-05-21T11:07:28.752Z,20.20
2023-05-21T11:08:28.710Z,20.20
2023-05-21T11:09:28.760Z,20.21
2023-05-21T11:10:28.734Z,20.21
2023-05-21T11:11:28.732Z,20.21
2023-05-21T11:12:28.684Z,20.21
2023-05-21T11:13:28.716Z,20.21
2023-05-21T11:14:28.695Z,20.22
2023-05-21T11:15:28.691Z,20.22
2023-05-21T11:16:28.741Z,20.22
2023-05-21T11:17:28.733Z,20.22
2023-05-21T11:18:28.678Z,20.22
2023-05-21T11:19:29.015Z,20.22
2023-05-21T11:20:28.709Z,20.22
2023-05-21T11:21:29.059Z,20.22
2023-05-21T11:22:28.780Z,20.21
2023-05-21T11:23:28.821Z,20.22
2023-05-21T11:24:28.862Z,20.22
2023-05-21T11:25:28.894Z,20.23
2023-05-21T11:26:29.059Z,20.22
2023-05-21T11:27:28.901Z,20.22
2023-05-21T11:28:28.956Z,20.23
2023-05-21T11:29:29.004Z,20.23
2023-05-21T11:30:29.032Z,20.23
2023-05-21T11:31:29.103Z,20.23
2023-05-21T11:32:29.121Z,20.23
2023-05-21T11:33:29.119Z,20.23
2023-05-21T11:34:29.132Z,20.23
2023-05-21T11:35:29.154Z,20.24
2023-05-21T11:36:29.569Z,20.23
2023-05-21T11:37:29.231Z,20.23
2023-05-21T11:38:29.262Z,20.24
2023-05-21T11:39:29.263Z,20.24
2023-05-21T11:40:29.352Z,20.25
2023-05-21T11:41:29.357Z,20.24
2023-05-21T11:42:29.372Z,20.24
2023-05-21T11:43:29.380Z,20.24
2023-05-21T11:44:29.425Z,20.24
2023-05-21T11:45:29.453Z,20.24
2023-05-21T11:46:29.557Z,20.24
2023-05-21T11:47:29.571Z,20.24
2023-05-21T11:48:31.869Z,20.25
2023-05-21T11:49:29.685Z,20.25
2023-05-21T11:50:29.575Z,20.24
2023-05-21T11:51:29.561Z,20.25
2023-05-21T11:52:29.537Z,20.25
2023-05-21T11:53:29.525Z,20.26
2023-05-21T11:54:29.503Z,20.26
2023-05-21T11:55:29.487Z,20.25
2023-05-21T11:56:29.540Z,20.25
2023-05-21T11:57:29.469Z,20.25
2023-05-21T11:58:29.540Z,20.25
2023-05-21T11:59:29.514Z,20.25
2023-05-21T12:00:29.522Z,20.25
2023-05-21T12:01:29.468Z,20.24
2023-05-21T12:02:29.524Z,20.25
2023-05-21T12:03:29.591Z,20.25
2023-05-21T12:04:29.406Z,20.25
2023-05-21T12:05:29.445Z,20.26
2023-05-21T12:06:29.524Z,20.26
2023-05-21T12:07:29.405Z,20.26
2023-05-21T12:08:29.440Z,20.26
2023-05-21T12:09:29.430Z,20.26
2023-05-21T12:10:29.390Z,20.25
2023-05-21T12:11:29.605Z,20.26
2023-05-21T12:12:38.789Z,20.26
2023-05-21T12:13:30.384Z,20.25
2023-05-21T12:14:29.438Z,20.26
2023-05-21T12:15:29.339Z,20.27
2023-05-21T12:16:29.584Z,20.27
2023-05-21T12:17:29.351Z,20.27
2023-05-21T12:18:29.349Z,20.27
2023-05-21T12:19:29.496Z,20.27
2023-05-21T12:20:29.336Z,20.28
2023-05-21T12:21:29.327Z,20.28
2023-05-21T12:22:29.335Z,20.29
2023-05-21T12:23:29.299Z,20.29
2023-05-21T12:24:29.322Z,20.30
2023-05-21T12:25:29.300Z,20.30
2023-05-21T12:26:29.304Z,20.29
2023-05-21T12:27:29.296Z,20.30
2023-05-21T12:28:29.285Z,20.30
2023-05-21T12:29:29.269Z,20.31
2023-05-21T12:30:29.287Z,20.31
2023-05-21T12:31:29.429Z,20.32
2023-05-21T12:32:29.351Z,20.31
2023-05-21T12:33:29.369Z,20.31
2023-05-21T12:34:29.420Z,20.30
2023-05-21T12:35:29.441Z,20.31
2023-05-21T12:36:29.608Z,20.30
2023-05-21T12:37:29.473Z,20.31
2023-05-21T12:38:29.478Z,20.31
2023-05-21T12:39:29.549Z,20.30
2023-05-21T12:40:29.561Z,20.32
2023-05-21T12:41:29.576Z,20.32
2023-05-21T12:42:29.614Z,20.31
2023-05-21T12:43:29.636Z,20.31
2023-05-21T12:44:29.629Z,20.32
2023-05-21T12:45:29.647Z,20.32
2023-05-21T12:46:29.781Z,20.31
2023-05-21T12:47:29.718Z,20.31
2023-05-21T12:48:29.752Z,20.31
2023-05-21T12:49:29.770Z,20.32
2023-05-21T12:50:29.795Z,20.32
2023-05-21T12:51:29.821Z,20.32
2023-05-21T12:52:29.849Z,20.32